createdAt,value
2017-10-24T00:00:34.954Z,2.70
2017-10-24T00:03:01.565Z,2.80
2017-10-24T00:05:28.185Z,3.00
2017-10-24T00:07:54.812Z,2.73
2017-10-24T00:10:21.433Z,3.03
2017-10-24T00:12:48.052Z,3.23
2017-10-24T00:15:14.642Z,2.53
2017-10-24T00:17:41.252Z,2.80
2017-10-24T00:20:07.849Z,3.33
2017-10-24T00:22:34.477Z,3.00
2017-10-24T00:25:01.113Z,2.93
2017-10-24T00:27:27.699Z,3.03
2017-10-24T00:29:54.388Z,2.67
2017-10-24T00:32:21.026Z,2.93
2017-10-24T00:34:47.654Z,2.57
2017-10-24T00:37:14.246Z,2.70
2017-10-24T00:39:40.944Z,2.93
2017-10-24T00:42:07.578Z,2.57
2017-10-24T00:44:34.164Z,2.93
2017-10-24T00:47:00.792Z,2.73
2017-10-24T00:49:27.492Z,2.50
2017-10-24T00:51:54.069Z,2.67
2017-10-24T00:54:20.680Z,2.23
2017-10-24T00:56:47.284Z,2.50
2017-10-24T00:59:13.880Z,2.57
2017-10-24T01:01:40.579Z,2.13
2017-10-24T01:04:07.176Z,2.40
2017-10-24T01:06:33.769Z,2.50
2017-10-24T01:09:00.378Z,2.10
2017-10-24T01:11:27.027Z,2.30
2017-10-24T01:13:53.628Z,2.57
2017-10-24T01:16:20.220Z,1.93
2017-10-24T01:18:46.819Z,1.90
2017-10-24T01:21:13.477Z,2.50
2017-10-24T01:23:40.064Z,2.43
2017-10-24T01:26:06.685Z,2.20
2017-10-24T01:28:33.276Z,2.40
2017-10-24T01:30:59.891Z,2.00
2017-10-24T01:33:26.506Z,1.90
2017-10-24T01:35:53.112Z,2.03
2017-10-24T01:38:19.727Z,2.03
2017-10-24T01:40:46.329Z,2.33
2017-10-24T01:43:12.950Z,2.10
2017-10-24T01:45:39.561Z,2.10
2017-10-24T01:48:06.181Z,1.93
2017-10-24T01:50:32.772Z,2.30
2017-10-24T01:52:59.384Z,2.27
2017-10-24T01:55:25.986Z,2.30
2017-10-24T01:57:52.635Z,2.20
2017-10-24T02:00:19.216Z,1.83
2017-10-24T02:02:45.814Z,2.10
2017-10-24T02:05:12.553Z,2.10
2017-10-24T02:07:39.140Z,1.83
2017-10-24T02:10:05.750Z,2.37
2017-10-24T02:12:32.372Z,2.07
2017-10-24T02:14:58.974Z,1.90
2017-10-24T02:17:25.579Z,2.00
2017-10-24T02:19:52.275Z,2.00
2017-10-24T02:22:18.881Z,3.13
2017-10-24T02:24:45.550Z,2.50
2017-10-24T02:27:12.165Z,2.17
2017-10-24T02:29:38.764Z,2.10
2017-10-24T02:32:05.352Z,2.00
2017-10-24T02:34:31.998Z,1.93
2017-10-24T02:36:58.580Z,2.00
2017-10-24T02:39:25.274Z,2.10
2017-10-24T02:41:51.850Z,1.93
2017-10-24T02:44:18.551Z,2.20
2017-10-24T02:46:45.188Z,1.93
2017-10-24T02:49:11.769Z,2.20
2017-10-24T02:51:38.384Z,2.30
2017-10-24T02:54:04.980Z,2.33
2017-10-24T02:56:31.638Z,2.23
2017-10-24T02:58:58.260Z,2.30
2017-10-24T03:01:24.876Z,2.70
2017-10-24T03:03:51.500Z,2.43
2017-10-24T03:06:18.110Z,2.30
2017-10-24T03:08:44.719Z,3.00
2017-10-24T03:11:11.309Z,2.33
2017-10-24T03:13:37.949Z,2.73
2017-10-24T03:16:04.544Z,2.50
2017-10-24T03:18:31.281Z,2.87
2017-10-24T03:20:57.886Z,2.60
2017-10-24T03:23:24.551Z,2.90
2017-10-24T03:25:51.292Z,2.60
2017-10-24T03:28:17.873Z,2.80
2017-10-24T03:30:44.512Z,3.13
2017-10-24T03:33:11.206Z,3.00
2017-10-24T03:35:37.818Z,3.60
2017-10-24T03:38:04.436Z,3.53
2017-10-24T03:40:31.030Z,3.50
2017-10-24T03:42:57.631Z,3.20
2017-10-24T03:45:24.245Z,5.83
2017-10-24T03:47:50.898Z,4.20
2017-10-24T03:50:17.497Z,3.40
2017-10-24T03:52:44.206Z,2.97
2017-10-24T03:55:10.780Z,3.20
2017-10-24T03:57:37.404Z,3.33
2017-10-24T04:00:04.029Z,3.03
2017-10-24T04:02:30.670Z,3.23
2017-10-24T04:04:57.305Z,3.27
2017-10-24T04:07:23.904Z,3.70
2017-10-24T04:09:50.503Z,3.17
2017-10-24T04:12:17.206Z,3.60
2017-10-24T04:14:43.784Z,3.33
2017-10-24T04:17:10.490Z,3.67
2017-10-24T04:19:37.093Z,3.80
2017-10-24T04:22:03.759Z,3.80
2017-10-24T04:24:31.061Z,3.83
2017-10-24T04:26:57.653Z,3.50
2017-10-24T04:29:24.389Z,3.50
2017-10-24T04:31:51.028Z,2.97
2017-10-24T04:34:17.628Z,2.80
2017-10-24T04:36:44.224Z,2.67
2017-10-24T04:39:10.841Z,3.50
2017-10-24T04:41:37.601Z,3.20
2017-10-24T04:44:04.197Z,3.10
2017-10-24T04:46:30.832Z,3.00
2017-10-24T04:48:57.461Z,2.83
2017-10-24T04:51:24.060Z,2.63
2017-10-24T04:53:50.677Z,2.50
2017-10-24T04:56:17.282Z,3.20
2017-10-24T04:58:43.880Z,3.33
2017-10-24T05:01:10.488Z,2.60
2017-10-24T05:03:37.082Z,2.60
2017-10-24T05:06:03.719Z,2.80
2017-10-24T05:08:30.390Z,3.17
2017-10-24T05:10:56.964Z,3.10
2017-10-24T05:13:23.604Z,3.10
2017-10-24T05:15:50.203Z,2.80
2017-10-24T05:18:16.818Z,3.10
2017-10-24T05:20:43.485Z,3.17
2017-10-24T05:23:10.110Z,3.27
2017-10-24T05:25:37.013Z,3.00
2017-10-24T05:28:03.640Z,2.90
2017-10-24T05:30:30.250Z,3.50
2017-10-24T05:32:56.891Z,2.97
2017-10-24T05:35:23.541Z,3.80
2017-10-24T05:37:50.185Z,3.70
2017-10-24T05:40:16.797Z,3.60
2017-10-24T05:42:43.533Z,4.63
2017-10-24T05:45:10.124Z,4.00
2017-10-24T05:47:36.741Z,3.63
2017-10-24T05:50:03.365Z,3.60
2017-10-24T05:52:30.000Z,3.33
2017-10-24T05:54:56.616Z,2.80
2017-10-24T05:57:23.230Z,3.00
2017-10-24T05:59:49.858Z,3.50
2017-10-24T06:02:16.482Z,3.23
2017-10-24T06:04:43.125Z,2.70
2017-10-24T06:07:09.768Z,3.03
2017-10-24T06:09:36.901Z,3.70
2017-10-24T06:12:03.530Z,3.30
2017-10-24T06:14:30.124Z,3.23
2017-10-24T06:16:56.770Z,3.07
2017-10-24T06:19:23.400Z,3.67
2017-10-24T06:21:50.030Z,3.00
2017-10-24T06:24:16.624Z,3.37
2017-10-24T06:26:43.254Z,3.47
2017-10-24T06:29:09.853Z,3.67
2017-10-24T06:31:36.473Z,4.20
2017-10-24T06:34:03.079Z,3.77
2017-10-24T06:36:29.705Z,3.80
2017-10-24T06:38:56.401Z,3.30
2017-10-24T06:41:23.038Z,3.77
2017-10-24T06:43:49.644Z,3.10
2017-10-24T06:46:16.250Z,3.47
2017-10-24T06:48:43.180Z,3.20
2017-10-24T06:51:09.768Z,3.40
2017-10-24T06:53:36.401Z,3.07
2017-10-24T06:56:03.014Z,2.77
2017-10-24T06:58:29.608Z,3.03
2017-10-24T07:00:56.209Z,3.13
2017-10-24T07:03:22.828Z,3.23
2017-10-24T07:05:49.552Z,2.73
2017-10-24T07:08:16.169Z,3.10
2017-10-24T07:10:42.785Z,2.70
2017-10-24T07:13:09.378Z,3.10
2017-10-24T07:15:35.982Z,3.50
2017-10-24T07:18:02.597Z,2.97
2017-10-24T07:20:29.223Z,2.93
2017-10-24T07:22:55.817Z,3.10
2017-10-24T07:25:22.408Z,2.80
2017-10-24T07:27:49.028Z,2.70
2017-10-24T07:30:15.625Z,1.90
2017-10-24T07:32:42.227Z,2.87
2017-10-24T07:35:08.842Z,2.80
2017-10-24T07:37:35.432Z,2.93
2017-10-24T07:40:02.061Z,3.20
2017-10-24T07:42:28.649Z,2.10
2017-10-24T07:44:55.252Z,2.30
2017-10-24T07:47:21.864Z,2.37
2017-10-24T07:49:48.487Z,2.00
2017-10-24T07:52:15.082Z,2.27
2017-10-24T07:54:41.712Z,2.70
2017-10-24T07:57:08.315Z,2.40
2017-10-24T07:59:34.905Z,2.50
2017-10-24T08:02:01.544Z,2.40
2017-10-24T08:04:28.137Z,3.20
2017-10-24T08:06:54.735Z,1.80
2017-10-24T08:09:21.361Z,2.33
2017-10-24T08:11:47.984Z,2.80
2017-10-24T08:14:14.667Z,2.40
2017-10-24T08:16:41.248Z,2.17
2017-10-24T08:19:07.889Z,2.50
2017-10-24T08:21:34.494Z,2.37
2017-10-24T08:24:01.214Z,7.73
2017-10-24T08:26:27.799Z,2.60
2017-10-24T08:28:54.424Z,1.97
2017-10-24T08:31:21.053Z,2.60
2017-10-24T08:33:47.667Z,2.20
2017-10-24T08:36:14.300Z,2.63
2017-10-24T08:38:40.882Z,2.60
2017-10-24T08:41:07.524Z,2.30
2017-10-24T08:43:34.125Z,2.67
2017-10-24T08:46:00.741Z,2.17
2017-10-24T08:48:27.336Z,2.10
2017-10-24T08:50:53.953Z,2.10
2017-10-24T08:53:20.544Z,2.90
2017-10-24T08:55:47.160Z,1.93
2017-10-24T08:58:13.797Z,2.30
2017-10-24T09:00:40.397Z,2.30
2017-10-24T09:03:07.012Z,2.50
2017-10-24T09:05:33.614Z,1.90
2017-10-24T09:08:00.226Z,2.90
2017-10-24T09:10:41.706Z,2.43
2017-10-24T09:13:08.324Z,2.63
2017-10-24T09:15:34.943Z,2.30
2017-10-24T09:18:01.569Z,2.20
2017-10-24T09:20:28.157Z,2.87
2017-10-24T09:22:54.763Z,2.43
2017-10-24T09:25:21.378Z,1.90
2017-10-24T09:27:48.033Z,2.20
2017-10-24T09:30:14.656Z,3.03
2017-10-24T09:32:42.143Z,2.13
2017-10-24T09:35:08.780Z,2.00
2017-10-24T09:37:35.468Z,2.10
2017-10-24T09:40:02.072Z,2.07
2017-10-24T09:42:28.696Z,1.90
2017-10-24T09:44:55.303Z,2.03
2017-10-24T09:47:21.955Z,1.93
2017-10-24T09:49:54.252Z,1.93
2017-10-24T09:52:20.881Z,1.93
2017-10-24T09:54:47.475Z,2.00
2017-10-24T09:57:14.094Z,1.83
2017-10-24T09:59:40.690Z,1.90
2017-10-24T10:02:08.045Z,1.80
2017-10-24T10:04:34.665Z,1.57
2017-10-24T10:07:02.160Z,2.23
2017-10-24T10:09:28.769Z,1.50
2017-10-24T10:11:55.388Z,1.93
2017-10-24T10:14:22.958Z,1.67
2017-10-24T10:16:49.576Z,1.60
2017-10-24T10:19:16.174Z,1.70
2017-10-24T10:21:42.788Z,1.70
2017-10-24T10:24:12.237Z,1.57
2017-10-24T10:26:38.844Z,2.30
2017-10-24T10:29:05.448Z,1.47
2017-10-24T10:31:32.065Z,1.23
2017-10-24T10:33:58.682Z,2.03
2017-10-24T10:36:25.270Z,1.60
2017-10-24T10:38:51.890Z,1.40
2017-10-24T10:41:18.500Z,1.57
2017-10-24T10:43:45.096Z,1.63
2017-10-24T10:46:11.725Z,1.20
2017-10-24T10:48:38.344Z,1.33
2017-10-24T10:51:04.949Z,1.33
2017-10-24T10:53:31.590Z,1.23
2017-10-24T10:55:58.185Z,1.20
2017-10-24T10:58:24.786Z,1.00
2017-10-24T11:00:51.401Z,1.40
2017-10-24T11:03:18.030Z,1.27
2017-10-24T11:05:44.708Z,1.80
2017-10-24T11:08:11.324Z,1.40
2017-10-24T11:10:37.917Z,1.30
2017-10-24T11:13:04.533Z,1.30
2017-10-24T11:15:31.313Z,1.10
2017-10-24T11:17:57.917Z,1.37
2017-10-24T11:20:24.534Z,1.90
2017-10-24T11:22:51.132Z,0.90
2017-10-24T11:25:17.729Z,2.20
2017-10-24T11:27:44.348Z,1.60
2017-10-24T11:30:10.971Z,1.43
2017-10-24T11:32:37.621Z,1.30
2017-10-24T11:35:05.078Z,1.20
2017-10-24T11:37:31.669Z,1.17
2017-10-24T11:39:58.303Z,1.00
2017-10-24T11:42:24.896Z,1.20
2017-10-24T11:44:51.529Z,1.70
2017-10-24T11:47:18.150Z,1.33
2017-10-24T11:49:44.938Z,1.40
2017-10-24T11:52:11.533Z,1.20
2017-10-24T11:54:39.689Z,1.50
2017-10-24T11:57:06.785Z,1.60
2017-10-24T11:59:33.404Z,1.63
2017-10-24T12:02:00.194Z,1.17
2017-10-24T12:04:26.921Z,1.20
2017-10-24T12:06:53.537Z,1.00
2017-10-24T12:09:20.157Z,1.20
2017-10-24T12:11:46.792Z,1.17
2017-10-24T12:14:13.399Z,1.13
2017-10-24T12:16:40.005Z,1.33
2017-10-24T12:19:06.697Z,1.13
2017-10-24T12:21:33.302Z,0.83
2017-10-24T12:23:59.965Z,0.83
2017-10-24T12:26:26.577Z,0.90
2017-10-24T12:28:53.218Z,1.00
2017-10-24T12:31:19.825Z,1.20
2017-10-24T12:33:46.431Z,0.80
2017-10-24T12:36:13.040Z,0.70
2017-10-24T12:38:39.768Z,1.13
2017-10-24T12:41:06.418Z,0.90
2017-10-24T12:43:33.002Z,0.93
2017-10-24T12:46:16.316Z,1.10
2017-10-24T12:48:44.439Z,1.10
2017-10-24T12:51:13.597Z,0.90
2017-10-24T12:53:40.304Z,1.20
2017-10-24T12:56:06.933Z,0.60
2017-10-24T12:58:49.400Z,0.93
2017-10-24T13:01:16.011Z,1.10
2017-10-24T13:03:42.870Z,1.17
2017-10-24T13:06:09.526Z,1.03
2017-10-24T13:08:36.116Z,1.00
2017-10-24T13:11:02.757Z,1.00
2017-10-24T13:13:29.352Z,0.80
2017-10-24T13:15:55.945Z,0.80
2017-10-24T13:18:22.592Z,0.50
2017-10-24T13:20:49.187Z,0.90
2017-10-24T13:23:15.905Z,0.87
2017-10-24T13:25:42.493Z,0.90
2017-10-24T13:28:09.106Z,1.10
2017-10-24T13:30:35.717Z,1.00
2017-10-24T13:33:02.343Z,0.97
2017-10-24T13:35:28.928Z,1.20
2017-10-24T13:37:55.529Z,1.30
2017-10-24T13:40:22.159Z,0.97
2017-10-24T13:42:48.779Z,1.03
2017-10-24T13:45:15.401Z,1.20
2017-10-24T13:47:42.021Z,1.00
2017-10-24T13:50:08.619Z,0.60
2017-10-24T13:52:35.251Z,0.93
2017-10-24T13:55:01.853Z,0.77
2017-10-24T13:57:28.452Z,0.73
2017-10-24T13:59:55.077Z,0.60
2017-10-24T14:02:21.670Z,0.87
2017-10-24T14:04:53.925Z,1.00
2017-10-24T14:07:26.286Z,1.40
2017-10-24T14:09:58.737Z,1.10
2017-10-24T14:12:25.329Z,1.07
2017-10-24T14:14:51.941Z,0.80
2017-10-24T14:17:18.543Z,0.90
2017-10-24T14:19:45.152Z,1.30
2017-10-24T14:22:11.772Z,0.80
2017-10-24T14:24:38.385Z,1.13
2017-10-24T14:27:04.996Z,0.90
2017-10-24T14:29:31.612Z,0.90
2017-10-24T14:31:58.251Z,0.90
2017-10-24T14:34:24.862Z,1.00
2017-10-24T14:36:51.460Z,1.20
2017-10-24T14:39:18.105Z,1.30
2017-10-24T14:41:44.717Z,1.17
2017-10-24T14:44:11.336Z,1.10
2017-10-24T14:46:37.945Z,1.10
2017-10-24T14:49:04.553Z,1.20
2017-10-24T14:51:31.156Z,1.30
2017-10-24T14:53:57.789Z,0.87
2017-10-24T14:56:24.384Z,1.20
2017-10-24T14:58:50.980Z,0.90
2017-10-24T15:01:17.603Z,0.90
2017-10-24T15:03:44.209Z,1.53
2017-10-24T15:06:10.822Z,1.40
2017-10-24T15:08:37.429Z,1.27
2017-10-24T15:11:04.054Z,1.30
2017-10-24T15:13:30.645Z,1.30
2017-10-24T15:15:57.287Z,1.37
2017-10-24T15:18:23.881Z,1.20
2017-10-24T15:20:50.490Z,1.37
2017-10-24T15:23:17.117Z,1.47
2017-10-24T15:25:43.732Z,1.37
2017-10-24T15:28:10.329Z,1.33
2017-10-24T15:30:36.950Z,1.50
2017-10-24T15:33:03.591Z,1.37
2017-10-24T15:35:30.187Z,1.60
2017-10-24T15:37:56.780Z,1.33
2017-10-24T15:40:23.397Z,1.30
2017-10-24T15:42:49.994Z,1.50
2017-10-24T15:45:16.624Z,1.60
2017-10-24T15:47:43.245Z,1.90
2017-10-24T15:50:09.838Z,1.70
2017-10-24T15:52:36.452Z,1.97
2017-10-24T15:55:03.081Z,1.90
2017-10-24T15:57:29.681Z,2.30
2017-10-24T15:59:56.484Z,2.80
2017-10-24T16:02:23.068Z,2.10
2017-10-24T16:04:49.685Z,1.90
2017-10-24T16:07:16.310Z,2.20
2017-10-24T16:09:42.907Z,1.90
2017-10-24T16:12:09.516Z,2.60
2017-10-24T16:14:36.109Z,1.80
2017-10-24T16:17:02.724Z,2.10
2017-10-24T16:19:29.337Z,2.40
2017-10-24T16:21:55.939Z,1.97
2017-10-24T16:24:22.544Z,1.90
2017-10-24T16:26:49.173Z,2.27
2017-10-24T16:29:15.872Z,2.10
2017-10-24T16:31:42.463Z,1.83
2017-10-24T16:34:09.055Z,2.20
2017-10-24T16:36:35.717Z,1.80
2017-10-24T16:39:02.314Z,2.50
2017-10-24T16:41:28.940Z,1.70
2017-10-24T16:43:55.552Z,2.00
2017-10-24T16:46:22.136Z,1.67
2017-10-24T16:48:48.868Z,2.03
2017-10-24T16:51:17.244Z,1.67
2017-10-24T16:53:46.414Z,1.70
2017-10-24T16:56:13.393Z,1.90
2017-10-24T16:58:42.355Z,2.07
2017-10-24T17:01:09.139Z,2.80
2017-10-24T17:03:36.236Z,2.13
2017-10-24T17:06:05.033Z,2.67
2017-10-24T17:08:35.593Z,2.47
2017-10-24T17:11:04.082Z,2.37
2017-10-24T17:13:30.911Z,2.53
2017-10-24T17:15:57.528Z,2.40
2017-10-24T17:18:24.132Z,2.43
2017-10-24T17:20:50.830Z,2.70
2017-10-24T17:23:17.633Z,2.33
2017-10-24T17:25:44.496Z,3.13
2017-10-24T17:28:11.343Z,3.57
2017-10-24T17:30:38.227Z,3.60
2017-10-24T17:33:04.889Z,3.60
2017-10-24T17:35:31.574Z,3.40
2017-10-24T17:37:58.329Z,4.50
2017-10-24T17:40:24.928Z,3.77
2017-10-24T17:42:51.865Z,3.30
2017-10-24T17:45:18.721Z,3.40
2017-10-24T17:47:46.280Z,3.33
2017-10-24T17:50:12.933Z,4.03
2017-10-24T17:52:39.552Z,2.70
2017-10-24T17:55:06.355Z,2.97
2017-10-24T17:57:33.392Z,3.03
2017-10-24T18:00:00.902Z,2.70
2017-10-24T18:02:27.612Z,3.27
2017-10-24T18:04:54.578Z,3.20
2017-10-24T18:07:21.209Z,2.73
2017-10-24T18:09:48.015Z,2.83
2017-10-24T18:12:14.791Z,3.20
2017-10-24T18:14:41.487Z,3.17
2017-10-24T18:17:08.140Z,2.90
2017-10-24T18:19:34.913Z,3.30
2017-10-24T18:22:01.574Z,3.10
2017-10-24T18:24:28.564Z,2.53
2017-10-24T18:26:55.877Z,3.00
2017-10-24T18:29:22.818Z,2.97
2017-10-24T18:31:51.290Z,3.40
2017-10-24T18:34:18.762Z,3.00
2017-10-24T18:36:47.900Z,2.77
2017-10-24T18:39:14.817Z,2.57
2017-10-24T18:41:41.602Z,3.00
2017-10-24T18:44:08.989Z,2.77
2017-10-24T18:46:35.992Z,2.60
2017-10-24T18:49:02.610Z,2.57
2017-10-24T18:51:29.677Z,3.10
2017-10-24T18:53:57.063Z,3.00
2017-10-24T18:56:24.368Z,2.40
2017-10-24T18:58:51.489Z,2.63
2017-10-24T19:01:18.891Z,2.40
2017-10-24T19:03:46.291Z,3.30
2017-10-24T19:06:13.662Z,2.70
2017-10-24T19:08:40.686Z,2.70
2017-10-24T19:11:07.852Z,2.90
2017-10-24T19:13:36.017Z,2.57
2017-10-24T19:16:04.435Z,4.13
2017-10-24T19:18:31.564Z,4.53
2017-10-24T19:20:58.168Z,3.00
2017-10-24T19:23:25.611Z,2.50
2017-10-24T19:25:54.329Z,2.47
2017-10-24T19:28:21.693Z,3.60
2017-10-24T19:30:52.819Z,2.97
2017-10-24T19:33:20.636Z,3.77
2017-10-24T19:35:48.106Z,3.43
2017-10-24T19:38:15.358Z,3.70
2017-10-24T19:46:49.153Z,3.93
2017-10-24T19:49:17.451Z,3.70
2017-10-24T19:51:44.782Z,4.53
2017-10-24T19:54:12.610Z,4.73
2017-10-24T19:56:40.911Z,5.10
2017-10-24T19:59:08.196Z,5.13
2017-10-24T20:01:36.029Z,4.40
2017-10-24T20:04:03.433Z,4.37
2017-10-24T20:06:30.625Z,4.37
2017-10-24T20:08:57.767Z,4.43
2017-10-24T20:11:24.700Z,4.57
2017-10-24T20:13:51.303Z,4.60
2017-10-24T20:16:18.751Z,5.47
2017-10-24T20:18:47.740Z,4.70
2017-10-24T20:21:15.789Z,4.77
2017-10-24T20:23:42.877Z,4.90
2017-10-24T20:26:09.517Z,5.30
2017-10-24T20:28:36.579Z,5.07
2017-10-24T20:31:03.556Z,4.70
2017-10-24T20:33:31.020Z,4.60
2017-10-24T20:35:59.845Z,4.87
2017-10-24T20:38:26.834Z,5.30
2017-10-24T20:40:54.322Z,4.93
2017-10-24T20:43:21.583Z,4.27
2017-10-24T20:45:48.237Z,5.07
2017-10-24T20:48:14.840Z,5.27
2017-10-24T20:50:41.443Z,5.10
2017-10-24T20:53:08.134Z,5.37
2017-10-24T20:55:34.781Z,5.60
2017-10-24T20:58:01.442Z,5.77
2017-10-24T21:00:28.043Z,4.63
2017-10-24T21:02:54.685Z,5.50
2017-10-24T21:05:21.260Z,5.00
2017-10-24T21:07:47.872Z,5.37
2017-10-24T21:10:14.560Z,5.10
2017-10-24T21:12:41.149Z,5.10
2017-10-24T21:15:07.760Z,4.70
2017-10-24T21:17:34.361Z,5.13
2017-10-24T21:20:00.989Z,5.00
2017-10-24T21:22:27.699Z,4.90
2017-10-24T21:24:54.356Z,5.33
2017-10-24T21:27:20.972Z,5.07
2017-10-24T21:29:47.720Z,4.63
2017-10-24T21:32:14.310Z,4.67
2017-10-24T21:34:41.174Z,4.23
2017-10-24T21:37:07.772Z,4.00
2017-10-24T21:39:34.421Z,4.00
2017-10-24T21:42:01.050Z,4.53
2017-10-24T21:44:27.737Z,3.93
2017-10-24T21:46:54.382Z,3.80
2017-10-24T21:49:20.968Z,4.07
2017-10-24T21:51:47.650Z,4.07
2017-10-24T21:54:14.302Z,3.70
2017-10-24T21:56:40.923Z,5.07
2017-10-24T21:59:07.517Z,4.00
2017-10-24T22:01:34.149Z,4.27
2017-10-24T22:04:00.757Z,4.10
2017-10-24T22:06:27.376Z,4.30
2017-10-24T22:08:53.973Z,3.83
2017-10-24T22:11:20.591Z,4.13
2017-10-24T22:13:47.268Z,4.37
2017-10-24T22:16:13.895Z,3.90
2017-10-24T22:18:40.506Z,4.83
2017-10-24T22:21:07.122Z,4.07
2017-10-24T22:23:33.741Z,4.30
2017-10-24T22:26:00.377Z,4.77
2017-10-24T22:28:27.091Z,3.83
2017-10-24T22:30:53.712Z,4.23
2017-10-24T22:33:20.348Z,4.30
2017-10-24T22:35:46.949Z,4.20
2017-10-24T22:38:13.547Z,4.47
2017-10-24T22:40:40.194Z,3.57
2017-10-24T22:43:06.814Z,4.00
2017-10-24T22:45:33.439Z,4.50
2017-10-24T22:48:00.052Z,3.70
2017-10-24T22:50:26.701Z,3.60
2017-10-24T22:52:53.441Z,4.10
2017-10-24T22:55:20.112Z,4.80
2017-10-24T22:57:46.728Z,4.50
2017-10-24T23:00:13.341Z,4.67
2017-10-24T23:02:40.025Z,4.20
2017-10-24T23:05:06.637Z,4.03
2017-10-24T23:07:33.297Z,4.00
2017-10-24T23:09:59.884Z,4.87
2017-10-24T23:12:26.480Z,4.60
2017-10-24T23:14:53.102Z,4.40
2017-10-24T23:17:19.710Z,4.50
2017-10-24T23:19:46.341Z,4.37
2017-10-24T23:22:12.933Z,4.17
2017-10-24T23:24:39.573Z,4.77
2017-10-24T23:27:06.181Z,4.87
2017-10-24T23:29:32.845Z,4.43
2017-10-24T23:31:59.456Z,4.33
2017-10-24T23:34:26.091Z,4.60
2017-10-24T23:36:52.748Z,4.47
2017-10-24T23:39:19.339Z,4.70
2017-10-24T23:41:45.963Z,4.37
2017-10-24T23:44:12.584Z,4.73
2017-10-24T23:46:39.208Z,4.60
2017-10-24T23:49:05.833Z,5.20
2017-10-24T23:51:32.442Z,4.87
2017-10-24T23:53:59.058Z,4.37
2017-10-24T23:56:25.679Z,4.97
2017-10-24T23:58:52.278Z,4.50
